Time;durP1;ratioP1;P1;durP2;ratioP2;P2;SDS_P1;SDS_P2;PMS_P1;PMS_P2;Temp;Humidity;BMP_temperature;BMP_pressure;BME280_temperature;BME280_humidity;BME280_pressure;Samples;Min_cycle;Max_cycle;Signal;HPM_P1;HPM_P2
2021/03/07 00:00:25;;;;;;;10.80;2.13;;;27.60;79.70;;;;;;4890899;29;20842;-86
2021/03/07 00:02:53;;;;;;;9.15;2.10;;;28.40;72.80;;;;;;4883302;29;20791;-88
2021/03/07 00:05:20;;;;;;;7.93;2.23;;;28.30;72.80;;;;;;4894376;29;20416;-80
2021/03/07 00:07:49;;;;;;;7.35;1.80;;;29.10;68.30;;;;;;4893279;29;20409;-83
2021/03/07 00:10:18;;;;;;;9.13;1.70;;;28.70;71.70;;;;;;4893769;29;20809;-83
2021/03/07 00:12:46;;;;;;;8.50;1.80;;;27.70;71.70;;;;;;4885664;29;20764;-85
2021/03/07 00:15:14;;;;;;;11.07;2.55;;;26.90;73.30;;;;;;4874534;29;20422;-85
2021/03/07 00:17:42;;;;;;;9.77;2.33;;;26.50;74.50;;;;;;4877180;29;20390;-86
2021/03/07 00:20:12;;;;;;;14.35;2.42;;;25.70;75.90;;;;;;4876914;29;20480;-83
2021/03/07 00:22:39;;;;;;;12.10;2.45;;;24.80;78.80;;;;;;4877582;29;20403;-82
2021/03/07 00:25:08;;;;;;;23.08;5.43;;;24.00;81.70;;;;;;4876922;29;20470;-83
2021/03/07 00:27:35;;;;;;;7.20;1.90;;;23.80;84.80;;;;;;4875600;29;20399;-81
2021/03/07 00:30:05;;;;;;;7.28;2.35;;;23.20;84.30;;;;;;4876861;29;20383;-83
2021/03/07 00:32:32;;;;;;;6.70;1.85;;;22.90;85.40;;;;;;4876316;29;20426;-84
2021/03/07 00:34:59;;;;;;;7.88;2.00;;;22.50;86.40;;;;;;4875576;29;20411;-82
2021/03/07 00:37:26;;;;;;;9.30;2.13;;;22.10;89.40;;;;;;4874132;29;20598;-83
2021/03/07 00:39:53;;;;;;;7.15;2.03;;;22.30;90.60;;;;;;4876366;29;21575;-82
2021/03/07 00:42:20;;;;;;;10.40;2.03;;;23.80;90.10;;;;;;4874556;29;20413;-83
2021/03/07 00:44:47;;;;;;;10.30;2.20;;;25.00;82.80;;;;;;4876722;29;20426;-84
2021/03/07 00:47:18;;;;;;;10.90;2.20;;;25.10;80.60;;;;;;4875057;29;20980;-82
2021/03/07 00:49:45;;;;;;;8.87;1.93;;;24.60;81.90;;;;;;4873405;29;20840;-83
2021/03/07 00:52:12;;;;;;;11.48;2.33;;;24.20;83.30;;;;;;4874302;29;20526;-82
2021/03/07 00:54:39;;;;;;;9.38;2.00;;;23.50;85.10;;;;;;4875359;29;20409;-82
2021/03/07 00:57:06;;;;;;;8.35;1.98;;;23.20;87.40;;;;;;4875144;29;20426;-84
2021/03/07 00:59:33;;;;;;;8.13;2.03;;;23.00;89.30;;;;;;4859550;29;20779;-83
2021/03/07 01:02:00;;;;;;;11.95;2.30;;;22.80;90.00;;;;;;4874245;29;20945;-82
2021/03/07 01:04:27;;;;;;;5.95;1.85;;;23.50;91.80;;;;;;4879485;29;20387;-81
2021/03/07 01:06:54;;;;;;;7.40;1.77;;;23.70;85.00;;;;;;4875597;29;20446;-82
2021/03/07 01:09:21;;;;;;;11.13;1.90;;;23.60;85.30;;;;;;4874219;29;20403;-81
2021/03/07 01:11:48;;;;;;;8.48;2.00;;;23.60;87.30;;;;;;4874555;29;20403;-83
2021/03/07 01:14:15;;;;;;;9.13;1.98;;;24.30;85.10;;;;;;4875977;29;20439;-82
2021/03/07 01:16:44;;;;;;;8.05;2.15;;;25.40;80.90;;;;;;4875676;29;20483;-81
2021/03/07 01:19:11;;;;;;;8.40;1.90;;;25.90;80.00;;;;;;4872922;29;20418;-82
2021/03/07 01:21:38;;;;;;;7.53;1.90;;;26.00;84.90;;;;;;4875273;29;20429;-80
2021/03/07 01:24:06;;;;;;;7.03;2.20;;;25.90;79.20;;;;;;4874819;29;20878;-83
2021/03/07 01:26:33;;;;;;;9.27;2.17;;;25.50;81.60;;;;;;4875326;29;20395;-81
2021/03/07 01:29:00;;;;;;;6.97;2.30;;;24.60;81.80;;;;;;4875440;29;20523;-83
2021/03/07 01:31:27;;;;;;;5.47;1.75;;;24.10;81.80;;;;;;4875551;29;20399;-82
2021/03/07 01:33:54;;;;;;;8.75;2.33;;;23.70;83.70;;;;;;4875336;29;20406;-82
2021/03/07 01:36:21;;;;;;;8.30;2.10;;;23.90;89.60;;;;;;4874209;29;20407;-82
2021/03/07 01:38:47;;;;;;;7.30;2.55;;;24.30;86.50;;;;;;4873983;29;20409;-80
2021/03/07 01:41:14;;;;;;;10.77;2.17;;;24.70;84.70;;;;;;4874346;29;20505;-81
2021/03/07 01:43:41;;;;;;;9.13;2.33;;;24.80;83.50;;;;;;4875560;29;20442;-82
2021/03/07 01:46:08;;;;;;;9.95;2.60;;;24.70;86.10;;;;;;4875680;29;20391;-81
2021/03/07 01:48:36;;;;;;;9.25;2.15;;;24.40;84.50;;;;;;4876048;29;20398;-80
2021/03/07 01:51:03;;;;;;;8.43;2.30;;;24.10;86.70;;;;;;4868031;29;20506;-80
2021/03/07 01:53:30;;;;;;;7.80;2.50;;;24.20;84.90;;;;;;4875299;29;20387;-80
2021/03/07 01:55:58;;;;;;;8.27;2.83;;;24.10;84.00;;;;;;4875523;29;20477;-82
2021/03/07 01:58:32;;;;;;;7.47;2.00;;;24.10;86.60;;;;;;4874473;29;20411;-81
2021/03/07 02:01:00;;;;;;;12.05;2.40;;;24.10;84.20;;;;;;4860981;29;20855;-81
2021/03/07 02:03:36;;;;;;;7.68;2.42;;;24.10;84.10;;;;;;4875434;29;20919;-81
2021/03/07 02:06:04;;;;;;;7.27;2.47;;;24.40;86.80;;;;;;4874499;29;20409;-83
2021/03/07 02:08:31;;;;;;;9.82;2.38;;;24.40;86.40;;;;;;4874563;29;20531;-82
2021/03/07 02:11:01;;;;;;;8.00;2.35;;;24.40;86.20;;;;;;4873610;29;20965;-81
2021/03/07 02:13:37;;;;;;;11.13;2.70;;;24.50;82.10;;;;;;4873133;29;20406;-81
2021/03/07 02:16:14;;;;;;;9.00;2.40;;;24.90;80.00;;;;;;4866795;29;20453;-82
2021/03/07 02:18:43;;;;;;;5.30;2.53;;;24.90;79.50;;;;;;4875735;29;20405;-82
2021/03/07 02:21:46;;;;;;;7.87;2.57;;;24.70;79.00;;;;;;4871227;29;20517;-82
2021/03/07 02:24:15;;;;;;;9.07;2.78;;;24.70;80.00;;;;;;4870030;29;20954;-82
2021/03/07 02:26:47;;;;;;;5.70;3.00;;;24.90;80.60;;;;;;4873735;29;20450;-82
2021/03/07 02:29:15;;;;;;;7.50;2.58;;;25.10;84.00;;;;;;4873756;29;20398;-81
2021/03/07 02:32:12;;;;;;;9.57;3.10;;;25.30;80.70;;;;;;4873954;29;20415;-83
2021/03/07 02:34:57;;;;;;;6.93;2.85;;;24.60;81.20;;;;;;4884526;29;20436;-82
2021/03/07 02:37:25;;;;;;;8.43;3.00;;;24.20;86.90;;;;;;4893518;29;20476;-81
2021/03/07 02:39:53;;;;;;;8.35;2.83;;;24.20;85.50;;;;;;4878351;29;20407;-82
2021/03/07 02:42:27;;;;;;;12.57;3.60;;;24.30;84.00;;;;;;4885212;29;20413;-81
2021/03/07 02:45:20;;;;;;;7.55;2.85;;;24.50;84.20;;;;;;4893532;29;20381;-80
2021/03/07 02:47:49;;;;;;;9.95;3.40;;;24.50;83.10;;;;;;4893668;29;20393;-83
2021/03/07 02:50:27;;;;;;;8.02;2.85;;;24.30;82.30;;;;;;4879049;29;20411;-81
2021/03/07 02:53:03;;;;;;;8.95;3.30;;;23.90;85.60;;;;;;4893191;29;20440;-80
2021/03/07 02:55:33;;;;;;;7.75;3.53;;;23.70;85.70;;;;;;4894036;29;21064;-81
2021/03/07 02:58:08;;;;;;;13.15;3.28;;;23.60;86.60;;;;;;4865322;29;20735;-82
2021/03/07 03:00:38;;;;;;;8.60;3.38;;;23.60;87.60;;;;;;4877176;29;20434;-81
2021/03/07 03:03:10;;;;;;;11.50;3.50;;;23.70;87.70;;;;;;4877916;29;20391;-80
2021/03/07 03:05:40;;;;;;;8.07;3.28;;;23.90;89.40;;;;;;4876777;29;20410;-81
2021/03/07 03:08:08;;;;;;;9.45;3.17;;;24.10;86.20;;;;;;4876934;29;20853;-83
2021/03/07 03:10:36;;;;;;;8.82;3.00;;;24.10;85.80;;;;;;4877883;29;20422;-82
2021/03/07 03:13:05;;;;;;;7.75;3.40;;;24.10;83.40;;;;;;4877980;29;20429;-81
2021/03/07 03:15:32;;;;;;;9.02;3.40;;;23.80;84.60;;;;;;4875528;29;20410;-82
2021/03/07 03:18:00;;;;;;;10.50;3.60;;;23.60;87.30;;;;;;4878753;29;20458;-81
2021/03/07 03:20:27;;;;;;;8.18;2.92;;;23.50;88.50;;;;;;4879768;29;20899;-80
2021/03/07 03:22:55;;;;;;;10.30;3.58;;;23.70;87.10;;;;;;4884654;29;20410;-80
2021/03/07 03:25:22;;;;;;;8.20;3.42;;;24.00;86.10;;;;;;4881322;29;20763;-81
2021/03/07 03:27:49;;;;;;;10.57;3.38;;;24.00;86.30;;;;;;4865254;29;20530;-80
2021/03/07 03:30:19;;;;;;;10.30;3.40;;;24.00;85.60;;;;;;4876779;29;20430;-79
2021/03/07 03:32:47;;;;;;;9.10;2.95;;;23.90;87.50;;;;;;4876855;29;20498;-79
2021/03/07 03:35:17;;;;;;;10.18;3.25;;;23.90;88.60;;;;;;4890761;29;20512;-79
2021/03/07 03:37:47;;;;;;;7.97;3.08;;;23.80;88.30;;;;;;4891184;29;20504;-80
2021/03/07 03:40:22;;;;;;;9.68;3.22;;;23.80;88.20;;;;;;4894247;29;20432;-79
2021/03/07 03:42:55;;;;;;;10.82;3.17;;;23.70;87.30;;;;;;4888834;29;20746;-78
2021/03/07 03:45:23;;;;;;;11.03;2.90;;;23.50;89.10;;;;;;4880436;29;20800;-78
2021/03/07 03:48:02;;;;;;;10.70;3.10;;;23.50;90.10;;;;;;4876299;29;20418;-79
2021/03/07 03:50:31;;;;;;;9.60;2.67;;;23.60;89.40;;;;;;4874493;29;20403;-79
2021/03/07 03:53:01;;;;;;;7.53;2.70;;;23.80;89.00;;;;;;4876590;29;20391;-79
2021/03/07 03:55:31;;;;;;;10.52;2.60;;;24.10;88.90;;;;;;4876977;29;20478;-80
2021/03/07 03:58:09;;;;;;;7.85;2.42;;;24.30;89.30;;;;;;4876684;29;20394;-79
2021/03/07 04:00:39;;;;;;;10.52;3.00;;;24.30;85.90;;;;;;4876499;29;20898;-78
2021/03/07 04:03:10;;;;;;;10.48;2.80;;;24.20;88.30;;;;;;4875711;29;20462;-78
2021/03/07 04:05:39;;;;;;;9.20;2.65;;;24.00;89.00;;;;;;4876727;29;20731;-78
2021/03/07 04:08:07;;;;;;;7.50;2.47;;;24.00;88.90;;;;;;4876628;29;20395;-78
2021/03/07 04:10:35;;;;;;;9.93;2.58;;;24.20;87.90;;;;;;4876701;29;20557;-78
2021/03/07 04:13:03;;;;;;;14.27;3.33;;;24.30;88.30;;;;;;4876596;29;20402;-79
2021/03/07 04:15:30;;;;;;;12.70;3.25;;;24.10;90.10;;;;;;4876382;29;20502;-78
2021/03/07 04:17:59;;;;;;;8.73;2.88;;;23.80;90.40;;;;;;4876428;29;20407;-79
2021/03/07 04:20:28;;;;;;;11.50;3.05;;;23.50;91.00;;;;;;4876943;29;20765;-78
2021/03/07 04:22:55;;;;;;;10.68;2.63;;;23.60;91.10;;;;;;4876443;29;20886;-79
2021/03/07 04:25:22;;;;;;;10.20;2.65;;;23.60;90.10;;;;;;4876363;29;20463;-79
2021/03/07 04:27:50;;;;;;;10.65;2.65;;;23.60;90.40;;;;;;4876567;29;20395;-78
2021/03/07 04:30:18;;;;;;;12.85;2.83;;;23.70;89.80;;;;;;4876699;29;20474;-78
2021/03/07 04:32:47;;;;;;;15.35;3.40;;;23.80;90.30;;;;;;4876255;29;20391;-78
2021/03/07 04:35:14;;;;;;;32.85;4.45;;;23.80;90.80;;;;;;4876163;29;20494;-78
2021/03/07 04:37:41;;;;;;;18.38;3.17;;;23.80;91.40;;;;;;4876218;29;20452;-78
2021/03/07 04:40:09;;;;;;;11.70;2.83;;;23.90;91.30;;;;;;4876178;29;20399;-79
2021/03/07 04:42:40;;;;;;;11.57;2.38;;;23.70;90.40;;;;;;4876083;29;20401;-78
2021/03/07 04:45:10;;;;;;;12.23;2.70;;;23.60;90.80;;;;;;4875952;29;20510;-78
2021/03/07 04:47:38;;;;;;;8.57;2.63;;;23.40;91.10;;;;;;4876122;29;20432;-78
2021/03/07 04:50:06;;;;;;;11.40;3.20;;;23.30;92.00;;;;;;4876346;29;20402;-78
2021/03/07 04:52:33;;;;;;;12.00;2.67;;;23.50;91.00;;;;;;4875910;29;20431;-78
2021/03/07 04:55:00;;;;;;;10.32;2.35;;;23.60;91.00;;;;;;4875806;29;20387;-79
2021/03/07 04:57:27;;;;;;;11.80;2.35;;;23.70;91.30;;;;;;4875891;29;20399;-79
2021/03/07 04:59:54;;;;;;;13.48;2.80;;;23.60;90.70;;;;;;4875687;29;20395;-79
2021/03/07 05:02:21;;;;;;;13.27;2.67;;;23.60;91.20;;;;;;4875692;29;20439;-79
2021/03/07 05:04:48;;;;;;;13.35;2.88;;;23.40;91.00;;;;;;4875660;29;20502;-79
2021/03/07 05:07:15;;;;;;;11.18;3.08;;;23.40;91.40;;;;;;4875506;29;20395;-80
2021/03/07 05:09:42;;;;;;;12.32;2.70;;;23.50;91.50;;;;;;4875532;29;20383;-80
2021/03/07 05:12:09;;;;;;;12.32;2.85;;;23.50;91.00;;;;;;4875437;29;20490;-78
2021/03/07 05:14:36;;;;;;;12.80;2.70;;;23.60;91.80;;;;;;4875277;29;20455;-78
2021/03/07 05:17:03;;;;;;;12.13;2.80;;;23.60;91.00;;;;;;4875470;29;20388;-78
2021/03/07 05:19:30;;;;;;;12.90;2.70;;;23.40;90.80;;;;;;4876046;29;20391;-77
2021/03/07 05:21:57;;;;;;;11.60;2.45;;;23.50;91.20;;;;;;4875556;29;20411;-79
2021/03/07 05:24:24;;;;;;;12.02;2.83;;;23.50;91.10;;;;;;4875443;29;20474;-79
2021/03/07 05:26:50;;;;;;;11.27;2.17;;;23.60;90.60;;;;;;4875512;29;20387;-78
2021/03/07 05:29:18;;;;;;;10.18;2.22;;;23.50;91.00;;;;;;4875424;29;20391;-78
2021/03/07 05:31:45;;;;;;;9.65;2.50;;;23.50;91.10;;;;;;4875315;29;20759;-78
2021/03/07 05:34:12;;;;;;;9.30;2.22;;;23.50;90.90;;;;;;4875228;29;20471;-79
2021/03/07 05:36:39;;;;;;;14.65;2.97;;;23.50;91.00;;;;;;4875422;29;20895;-78
2021/03/07 05:39:06;;;;;;;12.40;2.30;;;23.50;90.50;;;;;;4875558;29;20379;-79
2021/03/07 05:41:33;;;;;;;12.82;2.47;;;23.40;91.20;;;;;;4875235;29;20818;-79
2021/03/07 05:44:00;;;;;;;11.52;2.58;;;23.40;90.90;;;;;;4875386;29;20402;-80
2021/03/07 05:46:27;;;;;;;11.90;2.88;;;23.40;91.40;;;;;;4875359;29;20480;-79
2021/03/07 05:48:54;;;;;;;10.45;2.53;;;23.40;91.40;;;;;;4875532;29;20395;-78
2021/03/07 05:51:21;;;;;;;8.77;2.30;;;23.30;91.20;;;;;;4875517;29;20403;-78
2021/03/07 05:53:49;;;;;;;10.40;3.20;;;23.30;91.20;;;;;;4875149;29;20395;-79
2021/03/07 05:56:16;;;;;;;9.77;2.50;;;23.20;91.60;;;;;;4874958;29;20399;-79
2021/03/07 05:58:44;;;;;;;9.32;2.65;;;23.10;91.90;;;;;;4874947;29;20391;-78
2021/03/07 06:01:12;;;;;;;10.43;2.40;;;23.10;91.50;;;;;;4874876;29;20445;-78
2021/03/07 06:03:38;;;;;;;8.25;2.42;;;23.00;91.90;;;;;;4874877;29;20407;-79
2021/03/07 06:06:06;;;;;;;13.27;2.90;;;23.00;91.80;;;;;;4875205;29;20883;-79
2021/03/07 06:08:33;;;;;;;11.73;2.80;;;23.00;91.60;;;;;;4874856;29;20383;-78
2021/03/07 06:11:01;;;;;;;15.53;2.70;;;22.80;92.00;;;;;;4875086;29;20498;-78
2021/03/07 06:13:39;;;;;;;12.50;2.28;;;22.70;92.00;;;;;;4875049;29;20386;-78
2021/03/07 06:16:13;;;;;;;12.63;2.67;;;22.70;92.20;;;;;;4874987;29;20391;-79
2021/03/07 06:18:44;;;;;;;13.15;2.30;;;22.70;92.70;;;;;;4874892;29;20410;-77
2021/03/07 06:21:32;;;;;;;13.07;2.67;;;22.70;92.80;;;;;;4874994;29;20831;-78
2021/03/07 06:24:01;;;;;;;10.13;2.42;;;22.70;92.60;;;;;;4874730;29;20391;-80
2021/03/07 06:26:28;;;;;;;13.98;3.17;;;22.70;92.70;;;;;;4877016;29;20456;-79
2021/03/07 06:29:09;;;;;;;11.20;2.40;;;22.70;92.60;;;;;;4878379;29;20386;-80
2021/03/07 06:31:36;;;;;;;10.77;3.03;;;22.70;93.10;;;;;;4878189;29;20491;-79
2021/03/07 06:34:04;;;;;;;11.27;2.90;;;22.60;93.10;;;;;;4878018;29;20766;-80
2021/03/07 06:36:31;;;;;;;13.13;2.87;;;22.70;93.10;;;;;;4878041;29;20401;-79
2021/03/07 06:39:10;;;;;;;9.37;2.77;;;22.60;92.60;;;;;;4878021;29;20409;-79
2021/03/07 06:41:37;;;;;;;12.82;2.80;;;22.50;92.90;;;;;;4877888;29;20526;-80
2021/03/07 06:44:08;;;;;;;12.88;2.88;;;22.40;93.00;;;;;;4878000;29;20383;-79
2021/03/07 06:46:38;;;;;;;11.37;2.77;;;22.30;93.30;;;;;;4878164;29;20399;-79
2021/03/07 06:49:05;;;;;;;12.70;3.15;;;22.30;93.40;;;;;;4878345;29;20463;-79
2021/03/07 06:51:36;;;;;;;11.60;2.90;;;22.30;93.60;;;;;;4878119;29;20491;-79
2021/03/07 06:54:18;;;;;;;14.13;3.00;;;22.20;93.40;;;;;;4877945;29;20879;-79
2021/03/07 06:56:47;;;;;;;13.97;2.87;;;22.10;93.80;;;;;;4877993;29;20387;-79
2021/03/07 06:59:19;;;;;;;11.18;3.03;;;22.00;94.10;;;;;;4877660;29;20407;-79
2021/03/07 07:01:51;;;;;;;9.90;2.65;;;22.00;94.10;;;;;;4877718;29;20455;-80
2021/03/07 07:04:19;;;;;;;13.55;3.25;;;22.00;94.20;;;;;;4877756;29;20387;-79
2021/03/07 07:07:05;;;;;;;13.35;2.92;;;22.00;94.30;;;;;;4877684;29;20490;-80
2021/03/07 07:09:32;;;;;;;11.50;3.20;;;21.90;94.60;;;;;;4877538;29;20419;-79
2021/03/07 07:12:00;;;;;;;10.35;3.15;;;21.90;94.60;;;;;;4877507;29;20387;-80
2021/03/07 07:14:41;;;;;;;13.57;3.40;;;21.90;95.00;;;;;;4877698;29;20412;-78
2021/03/07 07:17:13;;;;;;;12.32;2.75;;;21.80;95.20;;;;;;4877562;29;20405;-79
2021/03/07 07:19:41;;;;;;;16.63;3.50;;;21.70;95.30;;;;;;4877798;29;20388;-79
2021/03/07 07:22:11;;;;;;;13.65;3.20;;;21.70;95.40;;;;;;4877362;29;20415;-79
2021/03/07 07:24:40;;;;;;;13.55;2.95;;;21.60;95.70;;;;;;4877404;29;20406;-80
2021/03/07 07:27:08;;;;;;;13.18;3.13;;;21.60;95.70;;;;;;4874704;29;20422;-78
2021/03/07 07:29:36;;;;;;;13.02;3.50;;;21.60;95.80;;;;;;4875305;29;20890;-78
2021/03/07 07:32:12;;;;;;;12.77;2.60;;;21.50;96.00;;;;;;4877143;29;20410;-79
2021/03/07 07:34:44;;;;;;;11.30;3.17;;;21.50;96.10;;;;;;4883309;29;20608;-78
2021/03/07 07:37:33;;;;;;;15.55;3.40;;;21.50;96.10;;;;;;4876246;29;20771;-78
2021/03/07 07:40:01;;;;;;;14.88;3.10;;;21.40;96.40;;;;;;4869508;29;20546;-79
2021/03/07 07:42:31;;;;;;;12.93;3.20;;;21.40;96.60;;;;;;4875481;29;20525;-80
2021/03/07 07:45:20;;;;;;;15.88;3.50;;;21.40;96.70;;;;;;4875581;29;20961;-78
2021/03/07 07:47:49;;;;;;;14.32;3.55;;;21.30;96.80;;;;;;4873931;29;20422;-79
2021/03/07 07:50:31;;;;;;;14.52;3.83;;;21.20;97.00;;;;;;4875756;29;20418;-79
2021/03/07 07:53:27;;;;;;;12.50;2.83;;;21.20;96.90;;;;;;4875220;29;20411;-78
2021/03/07 07:55:58;;;;;;;15.33;3.60;;;21.10;97.10;;;;;;4876376;29;20403;-78
2021/03/07 07:58:38;;;;;;;10.85;3.30;;;21.00;97.40;;;;;;4877024;29;20395;-78
2021/03/07 08:01:15;;;;;;;16.77;3.30;;;21.00;97.60;;;;;;4876430;29;20426;-78
2021/03/07 08:03:46;;;;;;;17.35;3.60;;;20.90;97.80;;;;;;4876872;29;20902;-77
2021/03/07 08:06:40;;;;;;;15.68;3.30;;;20.90;97.90;;;;;;4876870;29;20399;-78
2021/03/07 08:09:37;;;;;;;13.43;3.33;;;20.80;98.10;;;;;;4871983;29;20418;-77
2021/03/07 08:12:44;;;;;;;15.93;3.67;;;20.80;98.40;;;;;;4875193;29;20390;-78
2021/03/07 08:15:27;;;;;;;12.40;3.33;;;20.70;98.50;;;;;;4874642;29;20502;-79
2021/03/07 08:18:03;;;;;;;16.13;3.80;;;20.70;98.70;;;;;;4876116;29;20406;-79
2021/03/07 08:20:39;;;;;;;17.95;4.32;;;20.70;99.00;;;;;;4877001;29;20406;-80
2021/03/07 08:23:09;;;;;;;15.93;3.70;;;20.60;99.30;;;;;;4877010;29;20458;-80
2021/03/07 08:25:52;;;;;;;13.65;3.80;;;20.60;99.40;;;;;;4876498;29;20383;-81
2021/03/07 08:28:28;;;;;;;13.73;3.43;;;20.50;99.50;;;;;;4876037;29;20502;-80
2021/03/07 08:31:03;;;;;;;12.80;3.30;;;20.50;99.70;;;;;;4857885;29;20393;-80
2021/03/07 08:33:31;;;;;;;17.65;4.38;;;20.40;99.90;;;;;;4857641;29;20404;-79
2021/03/07 08:36:22;;;;;;;14.82;3.70;;;20.40;99.90;;;;;;4864901;29;20902;-80
2021/03/07 08:38:51;;;;;;;18.38;3.67;;;20.40;99.90;;;;;;4875780;29;20418;-80
2021/03/07 08:41:23;;;;;;;12.90;3.35;;;20.30;99.90;;;;;;4875958;29;20422;-82
2021/03/07 08:43:52;;;;;;;12.13;3.30;;;20.30;99.90;;;;;;4875853;29;20383;-82
2021/03/07 08:46:44;;;;;;;21.60;4.22;;;20.20;99.90;;;;;;4873122;29;20475;-81
2021/03/07 08:49:16;;;;;;;15.40;3.60;;;20.20;99.90;;;;;;4872013;29;20418;-80
2021/03/07 08:51:46;;;;;;;14.13;3.28;;;20.20;99.90;;;;;;4874984;29;20923;-81
2021/03/07 08:54:14;;;;;;;14.80;3.10;;;20.10;99.90;;;;;;4875595;29;20422;-81
2021/03/07 08:56:42;;;;;;;13.60;3.22;;;20.10;99.90;;;;;;4876472;29;20875;-81
2021/03/07 08:59:11;;;;;;;17.58;3.47;;;20.10;99.90;;;;;;4876246;29;21051;-81
2021/03/07 09:01:38;;;;;;;13.90;3.28;;;20.10;99.90;;;;;;4874554;29;20988;-82
2021/03/07 09:04:07;;;;;;;13.75;3.17;;;20.00;99.90;;;;;;4876050;29;20403;-81
2021/03/07 09:06:45;;;;;;;16.60;3.78;;;20.00;99.90;;;;;;4875263;29;20438;-81
2021/03/07 09:09:22;;;;;;;19.10;3.47;;;20.00;99.90;;;;;;4873785;29;20411;-81
2021/03/07 09:11:58;;;;;;;15.67;3.03;;;20.00;99.90;;;;;;4872448;29;20415;-80
2021/03/07 09:14:31;;;;;;;14.13;3.45;;;20.00;99.90;;;;;;4873919;29;20803;-80
2021/03/07 09:17:00;;;;;;;12.65;3.15;;;20.00;99.90;;;;;;4873568;29;20464;-79
2021/03/07 09:19:40;;;;;;;17.33;3.70;;;19.90;99.90;;;;;;4875113;29;20895;-81
2021/03/07 09:22:27;;;;;;;15.55;3.35;;;19.90;99.90;;;;;;4873493;29;20427;-80
2021/03/07 09:25:07;;;;;;;14.52;3.22;;;19.90;99.90;;;;;;4872853;29;20407;-81
2021/03/07 09:27:41;;;;;;;11.13;3.10;;;19.80;99.90;;;;;;4875304;29;20399;-81
2021/03/07 09:30:09;;;;;;;10.60;3.00;;;19.80;99.90;;;;;;4872706;29;20402;-82
2021/03/07 09:32:40;;;;;;;18.10;3.85;;;19.80;99.90;;;;;;4875084;29;20441;-81
2021/03/07 09:35:31;;;;;;;15.38;3.35;;;19.70;99.90;;;;;;4870424;29;20423;-81
2021/03/07 09:38:08;;;;;;;12.38;3.15;;;19.70;99.90;;;;;;4871730;29;20403;-81
2021/03/07 09:40:41;;;;;;;13.73;3.53;;;19.70;99.90;;;;;;4872053;29;20413;-81
2021/03/07 09:43:16;;;;;;;10.43;2.97;;;19.80;99.90;;;;;;4871607;29;20501;-81
2021/03/07 09:45:51;;;;;;;17.60;3.60;;;19.80;99.90;;;;;;4871424;29;20466;-81
2021/03/07 09:48:26;;;;;;;19.75;3.60;;;19.80;99.90;;;;;;4872193;29;20399;-81
2021/03/07 09:50:55;;;;;;;14.93;3.15;;;19.70;99.90;;;;;;4872332;29;20503;-81
2021/03/07 09:53:22;;;;;;;14.82;3.35;;;19.70;99.90;;;;;;4871919;29;20507;-81
2021/03/07 09:55:49;;;;;;;14.55;3.20;;;19.70;99.90;;;;;;4872256;29;20407;-81
2021/03/07 09:58:16;;;;;;;15.20;3.07;;;19.70;99.90;;;;;;4872038;29;20395;-82
2021/03/07 10:00:52;;;;;;;12.73;3.05;;;19.70;99.90;;;;;;4874939;29;20422;-81
2021/03/07 10:03:26;;;;;;;13.07;2.78;;;19.60;99.90;;;;;;4875584;29;20961;-82
2021/03/07 10:06:19;;;;;;;12.55;3.00;;;19.60;99.90;;;;;;4871338;29;20392;-81
2021/03/07 10:09:03;;;;;;;11.38;2.65;;;19.60;99.90;;;;;;4867991;29;20427;-81
2021/03/07 10:11:31;;;;;;;14.68;2.83;;;19.60;99.90;;;;;;4875597;29;20416;-81
2021/03/07 10:14:04;;;;;;;15.55;3.10;;;19.60;99.90;;;;;;4875789;29;20458;-82
2021/03/07 10:16:33;;;;;;;14.60;3.03;;;19.50;99.90;;;;;;4874604;29;20985;-82
2021/03/07 10:19:09;;;;;;;12.82;3.03;;;19.50;99.90;;;;;;4875717;29;20402;-81
2021/03/07 10:21:37;;;;;;;16.88;2.97;;;19.50;99.90;;;;;;4875923;29;20565;-81
2021/03/07 10:24:22;;;;;;;14.18;3.05;;;19.50;99.90;;;;;;4874414;29;20514;-81
2021/03/07 10:26:51;;;;;;;12.82;3.22;;;19.50;99.90;;;;;;4870850;29;20414;-81
2021/03/07 10:29:24;;;;;;;12.98;3.28;;;19.50;99.90;;;;;;4870713;29;20731;-80
2021/03/07 10:32:06;;;;;;;16.42;3.05;;;19.50;99.90;;;;;;4874372;29;20489;-81
2021/03/07 10:35:13;;;;;;;14.57;2.90;;;19.50;99.90;;;;;;4874048;29;20510;-81
2021/03/07 10:37:42;;;;;;;12.55;3.00;;;19.50;99.90;;;;;;4879603;29;20702;-81
2021/03/07 10:40:14;;;;;;;14.27;3.05;;;19.50;99.90;;;;;;4891239;29;20433;-82
2021/03/07 10:42:43;;;;;;;12.70;2.85;;;19.50;99.90;;;;;;4891001;29;20515;-82
2021/03/07 10:45:17;;;;;;;14.75;3.00;;;19.50;99.90;;;;;;4895488;29;20389;-81
2021/03/07 10:47:58;;;;;;;13.73;3.25;;;19.50;99.90;;;;;;4886634;29;20409;-82
2021/03/07 10:50:26;;;;;;;12.05;2.70;;;19.50;99.90;;;;;;4864908;29;20425;-82
2021/03/07 10:52:53;;;;;;;12.63;2.50;;;19.50;99.90;;;;;;4874679;29;20418;-81
2021/03/07 10:55:21;;;;;;;15.65;2.75;;;19.50;99.90;;;;;;4875172;29;20482;-82
2021/03/07 10:57:48;;;;;;;17.08;2.88;;;19.50;99.90;;;;;;4882970;29;20415;-81
2021/03/07 11:00:15;;;;;;;12.85;2.92;;;19.60;99.90;;;;;;4875643;29;20417;-82
2021/03/07 11:02:44;;;;;;;10.20;2.28;;;19.60;99.90;;;;;;4882232;29;20506;-82
2021/03/07 11:05:12;;;;;;;14.47;3.00;;;19.60;99.90;;;;;;4874149;29;20469;-83
2021/03/07 11:07:40;;;;;;;12.40;2.72;;;19.50;99.90;;;;;;4887820;29;20473;-82
2021/03/07 11:10:09;;;;;;;9.60;2.33;;;19.50;99.90;;;;;;4888470;29;21000;-82
2021/03/07 11:12:37;;;;;;;9.98;2.55;;;19.50;99.90;;;;;;4878229;29;20402;-82
2021/03/07 11:15:07;;;;;;;15.13;2.97;;;19.50;99.90;;;;;;4874836;29;20466;-82
2021/03/07 11:17:34;;;;;;;16.02;3.70;;;19.50;99.90;;;;;;4878098;29;21229;-80
2021/03/07 11:20:01;;;;;;;13.02;2.53;;;19.50;99.90;;;;;;4877902;29;20398;-82
2021/03/07 11:22:28;;;;;;;17.48;3.20;;;19.50;99.90;;;;;;4878869;29;20522;-82
2021/03/07 11:24:56;;;;;;;16.50;3.50;;;19.50;99.90;;;;;;4878191;29;20917;-80
2021/03/07 11:27:23;;;;;;;14.38;2.92;;;19.50;99.90;;;;;;4877211;29;20757;-80
2021/03/07 11:29:50;;;;;;;14.98;3.00;;;19.50;99.90;;;;;;4877924;29;20759;-80
2021/03/07 11:32:17;;;;;;;15.57;3.38;;;19.60;99.90;;;;;;4874236;29;20752;-81
2021/03/07 11:34:44;;;;;;;18.27;3.58;;;19.60;99.90;;;;;;4880388;29;20415;-81
2021/03/07 11:37:11;;;;;;;12.30;2.88;;;19.60;99.90;;;;;;4875270;29;20411;-81
2021/03/07 11:39:38;;;;;;;11.68;3.10;;;19.60;99.90;;;;;;4880571;29;20409;-80
2021/03/07 11:42:05;;;;;;;12.55;2.75;;;19.50;99.90;;;;;;4888441;29;20751;-80
2021/03/07 11:44:32;;;;;;;14.25;2.97;;;19.50;99.90;;;;;;4877346;29;20387;-81
2021/03/07 11:46:59;;;;;;;11.95;2.65;;;19.50;99.90;;;;;;4878022;29;20470;-81
2021/03/07 11:49:26;;;;;;;14.02;3.20;;;19.50;99.90;;;;;;4876579;29;20391;-81
2021/03/07 11:51:53;;;;;;;15.02;3.22;;;19.50;99.90;;;;;;4876905;29;20438;-81
2021/03/07 11:54:20;;;;;;;16.17;3.17;;;19.50;99.90;;;;;;4871720;29;20428;-81
2021/03/07 11:56:47;;;;;;;17.60;3.30;;;19.50;99.90;;;;;;4874043;29;20475;-80
2021/03/07 11:59:14;;;;;;;17.83;2.97;;;19.60;99.90;;;;;;4876244;29;20498;-80
2021/03/07 12:01:41;;;;;;;16.00;3.10;;;19.60;99.90;;;;;;4879391;29;20874;-81
2021/03/07 12:04:08;;;;;;;19.30;3.88;;;19.60;99.90;;;;;;4876825;29;20395;-82
2021/03/07 12:06:35;;;;;;;17.05;3.22;;;19.60;99.90;;;;;;4881241;29;20397;-80
2021/03/07 12:09:02;;;;;;;19.40;3.17;;;19.50;99.90;;;;;;4879028;29;20438;-82
2021/03/07 12:11:29;;;;;;;14.30;3.23;;;19.50;99.90;;;;;;4878908;29;20425;-82
2021/03/07 12:13:56;;;;;;;14.73;3.13;;;19.50;99.90;;;;;;4877743;29;20445;-82
2021/03/07 12:16:23;;;;;;;14.98;3.10;;;19.50;99.90;;;;;;4880757;29;20496;-82
2021/03/07 12:18:50;;;;;;;19.35;3.33;;;19.40;99.90;;;;;;4880845;29;20421;-82
2021/03/07 12:21:18;;;;;;;18.45;3.83;;;19.50;99.90;;;;;;4877304;29;20775;-82
2021/03/07 12:23:45;;;;;;;17.52;3.38;;;19.50;99.90;;;;;;4876052;29;20395;-82
2021/03/07 12:26:12;;;;;;;16.40;3.30;;;19.50;99.90;;;;;;4888525;29;20417;-82
2021/03/07 12:28:39;;;;;;;15.70;3.20;;;19.50;99.90;;;;;;4893877;29;20422;-82
2021/03/07 12:31:06;;;;;;;14.02;3.50;;;19.50;99.90;;;;;;4890560;29;20510;-82
2021/03/07 12:33:33;;;;;;;17.88;3.70;;;19.50;99.90;;;;;;4882066;29;20902;-81
2021/03/07 12:36:00;;;;;;;20.40;3.53;;;19.50;99.90;;;;;;4875032;29;20470;-82
2021/03/07 12:38:27;;;;;;;15.80;3.58;;;19.50;99.90;;;;;;4869990;29;20423;-82
2021/03/07 12:40:54;;;;;;;16.75;4.45;;;19.50;99.90;;;;;;4872709;29;20415;-81
2021/03/07 12:43:21;;;;;;;17.40;3.20;;;19.40;99.90;;;;;;4875323;29;20468;-82
2021/03/07 12:45:48;;;;;;;20.98;3.45;;;19.40;99.90;;;;;;4871676;29;20789;-82
2021/03/07 12:48:15;;;;;;;19.23;3.70;;;19.40;99.90;;;;;;4871233;29;20395;-81
2021/03/07 12:50:42;;;;;;;19.02;3.92;;;19.40;99.90;;;;;;4871553;29;20414;-81
2021/03/07 12:53:09;;;;;;;16.87;3.73;;;19.40;99.90;;;;;;4870201;29;20451;-81
2021/03/07 12:55:36;;;;;;;15.67;3.70;;;19.40;99.90;;;;;;4875172;29;20462;-81
2021/03/07 12:58:03;;;;;;;18.77;3.50;;;19.50;99.90;;;;;;4874323;29;20418;-81